Terminal Aerodrome Forecast
Issued by NWS

Home | Current Version | Previous Version | Text Only | Print | Product List | Glossary On
Versions: 1 2 3 4 5 6 7 8 9 10 11 12
000
FTUS45 KRIW 010534
TAFBPI
TAF
KBPI 010534Z 0106/0206 VRB05KT P6SM SKC
     FM011830 25014G24KT P6SM SCT090
     FM012130 25014G24KT P6SM VCTS SCT090CB BKN120
     FM020100 31008KT P6SM SCT100=

USA.gov is the U.S. government's official web portal to all federal, state and local government web resources and services.